Time;durP1;ratioP1;P1;durP2;ratioP2;P2;SDS_P1;SDS_P2;PMS_P1;PMS_P2;Temp;Humidity;BMP_temperature;BMP_pressure;BME280_temperature;BME280_humidity;BME280_pressure;Samples;Min_cycle;Max_cycle;Signal;HPM_P1;HPM_P2
2024/02/22 00:00:39;;;;;;;;;;;9.40;99.90;;;;;;4989823;28;19902;-82
2024/02/22 00:03:05;;;;;;;;;;;9.40;99.90;;;;;;5007271;28;19934;-82
2024/02/22 00:05:32;;;;;;;;;;;9.40;99.90;;;;;;5007810;28;19908;-81
2024/02/22 00:07:58;;;;;;;;;;;9.40;99.90;;;;;;5022136;28;19972;-81
2024/02/22 00:10:28;;;;;;;;;;;9.30;99.90;;;;;;5021410;28;19913;-82
2024/02/22 00:12:55;;;;;;;;;;;9.40;99.90;;;;;;5008970;28;19908;-81
2024/02/22 00:15:20;;;;;;;;;;;9.40;99.90;;;;;;5007017;28;19922;-82
2024/02/22 00:17:46;;;;;;;;;;;9.40;99.90;;;;;;5008240;28;19940;-80
2024/02/22 00:20:14;;;;;;;;;;;9.40;99.90;;;;;;5005499;28;19936;-81
2024/02/22 00:22:39;;;;;;;;;;;9.40;99.90;;;;;;5004369;28;19925;-81
2024/02/22 00:25:06;;;;;;;;;;;9.40;99.90;;;;;;4985617;28;19925;-81
2024/02/22 00:27:33;;;;;;;;;;;9.30;99.90;;;;;;5021650;28;19910;-80
2024/02/22 00:29:59;;;;;;;;;;;9.30;99.90;;;;;;4987254;28;20311;-81
2024/02/22 00:32:26;;;;;;;;;;;9.30;99.90;;;;;;5003010;28;19933;-81
2024/02/22 00:34:51;;;;;;;;;;;9.30;99.90;;;;;;5032471;28;20262;-81
2024/02/22 00:37:17;;;;;;;;;;;9.30;99.90;;;;;;5005135;28;19901;-81
2024/02/22 00:39:44;;;;;;;;;;;9.30;99.90;;;;;;4988793;28;19918;-81
2024/02/22 00:42:10;;;;;;;;;;;9.30;99.90;;;;;;4996296;28;19910;-81
2024/02/22 00:44:36;;;;;;;;;;;9.20;99.90;;;;;;4983510;28;19928;-82
2024/02/22 00:47:02;;;;;;;;;;;9.20;99.90;;;;;;5002785;28;19950;-80
2024/02/22 00:49:27;;;;;;;;;;;9.20;99.90;;;;;;5003297;28;19934;-80
2024/02/22 00:51:53;;;;;;;;;;;9.20;99.90;;;;;;4967965;28;19917;-81
2024/02/22 00:54:19;;;;;;;;;;;9.00;99.90;;;;;;4980230;28;19944;-81
2024/02/22 00:56:45;;;;;;;;;;;9.10;99.90;;;;;;4973460;28;20005;-82
2024/02/22 00:59:11;;;;;;;;;;;9.00;99.90;;;;;;4959073;28;19909;-81
2024/02/22 01:01:38;;;;;;;;;;;9.00;99.90;;;;;;4980855;28;19968;-81
2024/02/22 01:04:04;;;;;;;;;;;8.90;99.90;;;;;;4979487;28;19985;-81
2024/02/22 01:06:30;;;;;;;;;;;8.90;99.90;;;;;;5000284;28;19981;-81
2024/02/22 01:08:56;;;;;;;;;;;8.90;99.90;;;;;;4981120;28;19984;-81
2024/02/22 01:11:22;;;;;;;;;;;9.00;99.90;;;;;;5001582;28;19902;-81
2024/02/22 01:13:48;;;;;;;;;;;8.90;99.90;;;;;;5011242;28;19978;-82
2024/02/22 01:16:17;;;;;;;;;;;8.90;99.90;;;;;;4983792;28;19969;-81
2024/02/22 01:18:44;;;;;;;;;;;8.80;99.90;;;;;;5001209;28;19910;-81
2024/02/22 01:21:11;;;;;;;;;;;8.90;99.90;;;;;;4982723;28;19929;-79
2024/02/22 01:23:36;;;;;;;;;;;8.90;99.90;;;;;;4968806;28;19902;-79
2024/02/22 01:26:02;;;;;;;;;;;8.80;99.90;;;;;;4984709;28;19961;-81
2024/02/22 01:28:28;;;;;;;;;;;8.90;99.90;;;;;;4957542;28;19914;-80
2024/02/22 01:30:54;;;;;;;;;;;8.80;99.90;;;;;;4987393;28;19908;-81
2024/02/22 01:33:21;;;;;;;;;;;8.90;99.90;;;;;;5004081;28;19926;-80
2024/02/22 01:35:46;;;;;;;;;;;8.80;99.90;;;;;;4986316;28;19927;-81
2024/02/22 01:38:12;;;;;;;;;;;8.80;99.90;;;;;;5002433;28;19918;-81
2024/02/22 01:40:38;;;;;;;;;;;8.80;99.90;;;;;;4970907;28;19918;-81
2024/02/22 01:43:03;;;;;;;;;;;8.80;99.90;;;;;;4982613;28;20293;-81
2024/02/22 01:45:29;;;;;;;;;;;8.80;99.90;;;;;;4979885;28;19937;-81
2024/02/22 01:47:55;;;;;;;;;;;8.70;99.90;;;;;;4950635;28;19918;-82
2024/02/22 01:50:21;;;;;;;;;;;8.70;99.90;;;;;;4948581;28;19918;-82
2024/02/22 01:52:46;;;;;;;;;;;8.70;99.90;;;;;;4966428;28;19968;-82
2024/02/22 01:55:13;;;;;;;;;;;8.70;99.90;;;;;;4982792;28;20008;-81
2024/02/22 01:57:39;;;;;;;;;;;8.70;99.90;;;;;;4977111;28;19906;-81
2024/02/22 02:00:11;;;;;;;;;;;8.70;99.90;;;;;;4968831;28;19973;-82
2024/02/22 02:02:37;;;;;;;;;;;8.70;99.90;;;;;;5001104;28;20008;-82
2024/02/22 02:05:04;;;;;;;;;;;8.60;99.90;;;;;;4986535;28;19926;-81
2024/02/22 02:07:29;;;;;;;;;;;8.70;99.90;;;;;;4969825;28;19910;-81
2024/02/22 02:09:56;;;;;;;;;;;8.70;99.90;;;;;;4984190;28;19929;-81
2024/02/22 02:12:24;;;;;;;;;;;8.60;99.90;;;;;;5000877;28;19922;-81
2024/02/22 02:14:55;;;;;;;;;;;8.60;99.90;;;;;;4985377;28;19902;-81
2024/02/22 02:17:21;;;;;;;;;;;8.60;99.90;;;;;;4986168;28;20319;-81
2024/02/22 02:19:47;;;;;;;;;;;8.60;99.90;;;;;;5014059;28;19921;-81
2024/02/22 02:22:28;;;;;;;;;;;8.60;99.90;;;;;;4996288;28;20656;-81
2024/02/22 02:24:56;;;;;;;;;;;8.50;99.90;;;;;;4959382;28;19920;-81
2024/02/22 02:27:22;;;;;;;;;;;8.50;99.90;;;;;;4957729;28;20481;-81
2024/02/22 02:29:48;;;;;;;;;;;8.50;99.90;;;;;;4977784;28;20056;-81
2024/02/22 02:32:13;;;;;;;;;;;8.50;99.90;;;;;;4967451;28;19914;-81
2024/02/22 02:34:39;;;;;;;;;;;8.50;99.90;;;;;;4972540;28;19942;-81
2024/02/22 02:37:06;;;;;;;;;;;8.50;99.90;;;;;;4960040;28;19921;-81
2024/02/22 02:39:32;;;;;;;;;;;8.50;99.90;;;;;;4972734;28;19920;-81
2024/02/22 02:42:00;;;;;;;;;;;8.50;99.90;;;;;;4984459;28;19945;-81
2024/02/22 02:44:26;;;;;;;;;;;8.50;99.90;;;;;;4992431;28;19922;-81
2024/02/22 02:46:54;;;;;;;;;;;8.40;99.90;;;;;;4946936;28;19915;-81
2024/02/22 02:49:20;;;;;;;;;;;8.30;99.90;;;;;;4946147;28;19933;-82
2024/02/22 02:51:48;;;;;;;;;;;8.40;99.90;;;;;;4955081;28;20334;-82
2024/02/22 02:54:14;;;;;;;;;;;8.40;99.90;;;;;;4982009;28;19898;-81
2024/02/22 02:56:41;;;;;;;;;;;8.40;99.90;;;;;;4978136;28;19961;-82
2024/02/22 02:59:12;;;;;;;;;;;8.40;99.90;;;;;;4963814;28;19918;-81
2024/02/22 03:01:49;;;;;;;;;;;8.40;99.90;;;;;;4948102;28;19918;-82
2024/02/22 03:04:20;;;;;;;;;;;8.40;99.90;;;;;;4975832;28;19914;-81
2024/02/22 03:06:47;;;;;;;;;;;8.40;99.90;;;;;;4966187;28;19922;-82
2024/02/22 03:09:15;;;;;;;;;;;8.30;99.90;;;;;;4979940;28;19925;-81
2024/02/22 03:11:41;;;;;;;;;;;8.30;99.90;;;;;;4973745;28;19914;-81
2024/02/22 03:14:09;;;;;;;;;;;8.30;99.90;;;;;;4946518;28;19912;-81
2024/02/22 03:16:37;;;;;;;;;;;8.30;99.90;;;;;;4980736;28;19910;-81
2024/02/22 03:19:04;;;;;;;;;;;8.20;99.90;;;;;;4966256;28;19917;-81
2024/02/22 03:21:30;;;;;;;;;;;8.30;99.90;;;;;;4961885;28;19990;-81
2024/02/22 03:23:55;;;;;;;;;;;8.40;99.90;;;;;;4972032;28;19918;-80
2024/02/22 03:26:23;;;;;;;;;;;8.30;99.90;;;;;;4969883;28;19917;-80
2024/02/22 03:28:52;;;;;;;;;;;8.30;99.90;;;;;;4983810;28;19922;-81
2024/02/22 03:31:22;;;;;;;;;;;8.30;99.90;;;;;;4993441;28;19918;-81
2024/02/22 03:33:48;;;;;;;;;;;8.30;99.90;;;;;;4971274;28;19938;-82
2024/02/22 03:36:13;;;;;;;;;;;8.30;99.90;;;;;;4975586;28;20350;-81
2024/02/22 03:38:41;;;;;;;;;;;8.30;99.90;;;;;;4979799;28;19938;-82
2024/02/22 03:41:08;;;;;;;;;;;8.30;99.90;;;;;;4967679;28;19914;-80
2024/02/22 03:43:37;;;;;;;;;;;8.30;99.90;;;;;;4993699;28;19952;-81
2024/02/22 03:46:03;;;;;;;;;;;8.30;99.90;;;;;;4988930;28;19940;-82
2024/02/22 03:48:29;;;;;;;;;;;8.30;99.90;;;;;;5001989;28;19932;-82
2024/02/22 03:50:57;;;;;;;;;;;8.30;99.90;;;;;;4985012;28;19918;-81
2024/02/22 03:53:23;;;;;;;;;;;8.30;99.90;;;;;;4964524;28;20385;-81
2024/02/22 03:55:49;;;;;;;;;;;8.30;99.90;;;;;;5004599;28;19917;-81
2024/02/22 03:58:14;;;;;;;;;;;8.30;99.90;;;;;;4982381;28;19918;-80
2024/02/22 04:00:40;;;;;;;;;;;8.30;99.90;;;;;;4981512;28;19928;-81
2024/02/22 04:03:06;;;;;;;;;;;8.30;99.90;;;;;;4982892;28;19928;-82
2024/02/22 04:05:32;;;;;;;;;;;8.30;99.90;;;;;;4976169;28;20436;-81
2024/02/22 04:07:58;;;;;;;;;;;8.30;99.90;;;;;;4993156;28;20254;-81
2024/02/22 04:10:24;;;;;;;;;;;8.30;99.90;;;;;;4979039;28;19913;-80
2024/02/22 04:12:52;;;;;;;;;;;8.30;99.90;;;;;;4992956;28;19917;-81
2024/02/22 04:15:18;;;;;;;;;;;8.30;99.90;;;;;;4996506;28;19914;-81
2024/02/22 04:17:45;;;;;;;;;;;8.30;99.90;;;;;;5013055;28;19913;-81
2024/02/22 04:20:11;;;;;;;;;;;8.30;99.90;;;;;;4982803;28;19918;-81
2024/02/22 04:22:46;;;;;;;;;;;8.30;99.90;;;;;;4979075;28;19999;-81
2024/02/22 04:25:12;;;;;;;;;;;8.30;99.90;;;;;;4978195;28;19921;-82
2024/02/22 04:27:38;;;;;;;;;;;8.30;99.90;;;;;;4994379;28;19944;-82
2024/02/22 04:30:04;;;;;;;;;;;8.30;99.90;;;;;;4992445;28;20616;-81
2024/02/22 04:32:30;;;;;;;;;;;8.30;99.90;;;;;;5004551;28;19917;-81
2024/02/22 04:34:56;;;;;;;;;;;8.30;99.90;;;;;;4991563;28;19945;-81
2024/02/22 04:37:21;;;;;;;;;;;8.30;99.90;;;;;;4963094;28;19914;-81
2024/02/22 04:39:47;;;;;;;;;;;8.30;99.90;;;;;;4975839;28;19982;-81
2024/02/22 04:42:13;;;;;;;;;;;8.30;99.90;;;;;;4977409;28;19989;-81
2024/02/22 04:44:39;;;;;;;;;;;8.30;99.90;;;;;;4973823;28;19928;-81
2024/02/22 04:47:05;;;;;;;;;;;8.30;99.90;;;;;;4963447;28;19930;-81
2024/02/22 04:49:30;;;;;;;;;;;8.30;99.90;;;;;;4937096;28;19914;-81
2024/02/22 04:51:56;;;;;;;;;;;8.30;99.90;;;;;;4978711;28;19973;-81
2024/02/22 04:54:24;;;;;;;;;;;8.30;99.90;;;;;;4951115;28;20002;-80
2024/02/22 04:56:50;;;;;;;;;;;8.30;99.90;;;;;;4974535;28;19917;-80
2024/02/22 04:59:18;;;;;;;;;;;8.30;99.90;;;;;;4970728;28;19988;-81
2024/02/22 05:01:45;;;;;;;;;;;8.30;99.90;;;;;;4972507;28;20323;-81
2024/02/22 05:04:11;;;;;;;;;;;8.40;99.90;;;;;;4965307;28;20413;-81
2024/02/22 05:06:37;;;;;;;;;;;8.40;99.90;;;;;;4969313;28;20012;-81
2024/02/22 05:09:03;;;;;;;;;;;8.30;99.90;;;;;;4954383;28;19918;-81
2024/02/22 05:11:31;;;;;;;;;;;8.40;99.90;;;;;;4964709;28;19937;-80
2024/02/22 05:13:59;;;;;;;;;;;8.40;99.90;;;;;;4961422;28;19914;-80
2024/02/22 05:16:24;;;;;;;;;;;8.40;99.90;;;;;;4952949;28;19914;-81
2024/02/22 05:18:53;;;;;;;;;;;8.40;99.90;;;;;;4985651;28;19945;-80
2024/02/22 05:21:18;;;;;;;;;;;8.40;99.90;;;;;;4952483;28;19924;-80
2024/02/22 05:23:44;;;;;;;;;;;8.40;99.90;;;;;;4950165;28;20368;-81
2024/02/22 05:26:12;;;;;;;;;;;8.40;99.90;;;;;;4950419;28;19913;-80
2024/02/22 05:28:38;;;;;;;;;;;8.40;99.90;;;;;;4959383;28;19933;-80
2024/02/22 05:31:05;;;;;;;;;;;8.40;99.90;;;;;;4948370;28;19913;-80
2024/02/22 05:33:30;;;;;;;;;;;8.40;99.90;;;;;;4962064;28;20078;-80
2024/02/22 05:35:56;;;;;;;;;;;8.40;99.90;;;;;;4964412;28;19955;-80
2024/02/22 05:38:22;;;;;;;;;;;8.40;99.90;;;;;;4951054;28;19925;-81
2024/02/22 05:40:48;;;;;;;;;;;8.40;99.90;;;;;;4954182;28;19913;-80
2024/02/22 05:43:13;;;;;;;;;;;8.40;99.90;;;;;;4956397;28;19925;-80
2024/02/22 05:45:44;;;;;;;;;;;8.40;99.90;;;;;;4961396;28;19918;-80
2024/02/22 05:48:10;;;;;;;;;;;8.40;99.90;;;;;;4965040;28;19958;-80
2024/02/22 05:50:36;;;;;;;;;;;8.40;99.90;;;;;;4943302;28;19953;-80
2024/02/22 05:53:02;;;;;;;;;;;8.40;99.90;;;;;;4981037;28;19999;-80
2024/02/22 05:55:28;;;;;;;;;;;8.40;99.90;;;;;;4946219;28;19965;-80
2024/02/22 05:57:56;;;;;;;;;;;8.50;99.90;;;;;;4932663;28;19993;-81
2024/02/22 06:00:24;;;;;;;;;;;8.40;99.90;;;;;;4962440;28;19921;-80
2024/02/22 06:02:49;;;;;;;;;;;8.40;99.90;;;;;;4965979;28;19924;-80
2024/02/22 06:05:15;;;;;;;;;;;8.50;99.90;;;;;;4981784;28;19918;-80
2024/02/22 06:07:41;;;;;;;;;;;8.40;99.90;;;;;;4946987;28;19922;-80
2024/02/22 06:10:09;;;;;;;;;;;8.40;99.90;;;;;;4961239;28;19921;-81
2024/02/22 06:12:35;;;;;;;;;;;8.40;99.90;;;;;;4982281;28;19961;-80
2024/02/22 06:15:03;;;;;;;;;;;8.50;99.90;;;;;;4953066;28;19914;-80
2024/02/22 06:17:30;;;;;;;;;;;8.50;99.90;;;;;;4968021;28;19924;-81
2024/02/22 06:19:55;;;;;;;;;;;8.40;99.90;;;;;;5002952;28;19932;-80
2024/02/22 06:22:21;;;;;;;;;;;8.50;99.90;;;;;;4969941;28;19913;-80
2024/02/22 06:24:47;;;;;;;;;;;8.50;99.90;;;;;;4964962;28;19917;-81
2024/02/22 06:27:13;;;;;;;;;;;8.50;99.90;;;;;;4958570;28;20496;-80
2024/02/22 06:29:41;;;;;;;;;;;8.50;99.90;;;;;;4962748;28;19918;-80
2024/02/22 06:32:07;;;;;;;;;;;8.50;99.90;;;;;;4951245;28;20223;-80
2024/02/22 06:34:34;;;;;;;;;;;8.50;99.90;;;;;;4981266;28;20326;-80
2024/02/22 06:37:00;;;;;;;;;;;8.50;99.90;;;;;;4962405;28;19918;-81
2024/02/22 06:39:27;;;;;;;;;;;8.50;99.90;;;;;;4966103;28;19917;-80
2024/02/22 06:42:02;;;;;;;;;;;8.50;99.90;;;;;;4956289;28;19923;-80
2024/02/22 06:44:28;;;;;;;;;;;8.60;99.90;;;;;;4971205;28;19992;-80
2024/02/22 06:46:53;;;;;;;;;;;8.60;99.90;;;;;;4985134;28;19945;-80
2024/02/22 06:49:23;;;;;;;;;;;8.50;99.90;;;;;;4984247;28;19955;-80
2024/02/22 06:51:50;;;;;;;;;;;8.50;99.90;;;;;;4993120;28;19918;-80
2024/02/22 06:54:16;;;;;;;;;;;8.50;99.90;;;;;;4966974;28;20247;-80
2024/02/22 06:56:42;;;;;;;;;;;8.50;99.90;;;;;;4983842;28;19925;-80
2024/02/22 06:59:11;;;;;;;;;;;8.60;99.90;;;;;;4987028;28;19913;-80
2024/02/22 07:01:37;;;;;;;;;;;8.60;99.90;;;;;;4968624;28;19921;-80
2024/02/22 07:04:03;;;;;;;;;;;8.60;99.90;;;;;;4952158;28;19914;-81
2024/02/22 07:06:29;;;;;;;;;;;8.60;99.90;;;;;;4968606;28;19976;-80
2024/02/22 07:08:58;;;;;;;;;;;8.60;99.90;;;;;;4989151;28;19921;-80
2024/02/22 07:11:24;;;;;;;;;;;8.60;99.90;;;;;;4984950;28;19913;-80
2024/02/22 07:13:49;;;;;;;;;;;8.70;99.90;;;;;;4987624;28;19996;-80
2024/02/22 07:16:18;;;;;;;;;;;8.70;99.90;;;;;;4971204;28;19921;-80
2024/02/22 07:18:46;;;;;;;;;;;8.70;99.90;;;;;;4990021;28;20318;-80
2024/02/22 07:21:13;;;;;;;;;;;8.70;99.90;;;;;;4990515;28;19917;-80
2024/02/22 07:23:38;;;;;;;;;;;8.70;99.90;;;;;;4974593;28;19914;-80
2024/02/22 07:26:06;;;;;;;;;;;8.70;99.90;;;;;;4985581;28;19913;-80
2024/02/22 07:28:34;;;;;;;;;;;8.70;99.90;;;;;;4977014;28;19918;-81
2024/02/22 07:30:59;;;;;;;;;;;8.70;99.90;;;;;;4976473;28;20579;-81
2024/02/22 07:33:29;;;;;;;;;;;8.60;99.90;;;;;;4993196;28;19921;-81
2024/02/22 07:35:56;;;;;;;;;;;8.70;99.90;;;;;;4972769;28;19918;-81
2024/02/22 07:38:27;;;;;;;;;;;8.70;99.90;;;;;;4970554;28;20215;-81
2024/02/22 07:40:58;;;;;;;;;;;8.80;99.90;;;;;;4976508;28;20246;-81
2024/02/22 07:43:24;;;;;;;;;;;8.70;99.90;;;;;;4974996;28;19921;-81
2024/02/22 07:45:50;;;;;;;;;;;8.80;99.90;;;;;;4991216;28;19920;-81
2024/02/22 07:48:17;;;;;;;;;;;8.80;99.90;;;;;;4974508;28;19932;-81
2024/02/22 07:50:43;;;;;;;;;;;8.80;99.90;;;;;;4990253;28;19913;-81
2024/02/22 07:53:20;;;;;;;;;;;8.80;99.90;;;;;;5006591;28;19913;-80
2024/02/22 07:55:46;;;;;;;;;;;8.80;99.90;;;;;;5003382;28;19918;-80
2024/02/22 07:58:17;;;;;;;;;;;8.80;99.90;;;;;;4970430;28;19924;-80
2024/02/22 08:00:50;;;;;;;;;;;8.80;99.90;;;;;;4970306;28;19999;-77
2024/02/22 08:03:21;;;;;;;;;;;8.90;99.90;;;;;;4986013;28;20333;-80
2024/02/22 08:05:50;;;;;;;;;;;8.80;99.90;;;;;;4979077;28;20548;-80
2024/02/22 08:08:19;;;;;;;;;;;8.90;99.90;;;;;;4989473;28;19972;-79
2024/02/22 08:10:45;;;;;;;;;;;8.90;99.90;;;;;;4972852;28;20449;-80
2024/02/22 08:13:12;;;;;;;;;;;8.90;99.90;;;;;;4973599;28;19925;-80
2024/02/22 08:15:40;;;;;;;;;;;8.90;99.90;;;;;;4972709;28;19914;-79
2024/02/22 08:18:05;;;;;;;;;;;8.90;99.90;;;;;;5003990;28;20378;-79
2024/02/22 08:20:41;;;;;;;;;;;8.90;99.90;;;;;;4986102;28;19944;-80
2024/02/22 08:23:08;;;;;;;;;;;8.90;99.90;;;;;;4980616;28;20238;-80
2024/02/22 08:25:42;;;;;;;;;;;9.00;99.90;;;;;;4985044;28;19970;-80
2024/02/22 08:28:23;;;;;;;;;;;8.90;99.90;;;;;;5001810;28;19917;-79
2024/02/22 08:30:49;;;;;;;;;;;9.00;99.90;;;;;;4989018;28;19917;-80
2024/02/22 08:33:25;;;;;;;;;;;9.00;99.90;;;;;;4985550;28;19924;-80
2024/02/22 08:35:53;;;;;;;;;;;9.00;99.90;;;;;;4967948;28;20008;-80
2024/02/22 08:38:28;;;;;;;;;;;9.00;99.90;;;;;;4981538;28;20334;-80
2024/02/22 08:41:05;;;;;;;;;;;9.00;99.90;;;;;;4957564;28;19949;-78
2024/02/22 08:43:31;;;;;;;;;;;9.00;99.90;;;;;;4961047;28;19952;-79
2024/02/22 08:45:58;;;;;;;;;;;9.00;99.90;;;;;;4985812;28;19913;-80
2024/02/22 08:48:30;;;;;;;;;;;9.00;99.90;;;;;;4965782;28;20258;-80
2024/02/22 08:50:57;;;;;;;;;;;9.10;99.90;;;;;;4984391;28;20339;-77
2024/02/22 08:53:26;;;;;;;;;;;9.00;99.90;;;;;;4985989;28;20258;-80
2024/02/22 08:55:59;;;;;;;;;;;9.00;99.90;;;;;;4968226;28;19914;-81
2024/02/22 08:58:37;;;;;;;;;;;9.10;99.90;;;;;;4983637;28;19940;-80
2024/02/22 09:01:13;;;;;;;;;;;;;;;;;;;;;
2024/02/22 09:03:39;;;;;;;;;;;9.00;99.90;;;;;;4986207;28;19956;-80
2024/02/22 09:06:06;;;;;;;;;;;9.10;99.90;;;;;;5002221;28;19956;-80
2024/02/22 09:08:34;;;;;;;;;;;9.20;99.90;;;;;;4986371;28;20338;-80
2024/02/22 09:11:00;;;;;;;;;;;9.20;99.90;;;;;;4965943;28;19999;-80
2024/02/22 09:13:29;;;;;;;;;;;9.20;99.90;;;;;;4966279;28;19949;-80
2024/02/22 09:15:55;;;;;;;;;;;9.20;99.90;;;;;;4996421;28;19957;-80
2024/02/22 09:18:20;;;;;;;;;;;9.30;99.90;;;;;;4999097;28;20380;-79
2024/02/22 09:20:46;;;;;;;;;;;9.20;99.90;;;;;;4988093;28;20294;-80
2024/02/22 09:23:13;;;;;;;;;;;9.30;99.90;;;;;;4968289;28;19921;-80
2024/02/22 09:25:46;;;;;;;;;;;9.30;99.90;;;;;;5011387;28;19967;-80
2024/02/22 09:28:21;;;;;;;;;;;9.30;99.90;;;;;;4986873;28;19917;-80
2024/02/22 09:30:48;;;;;;;;;;;9.40;99.90;;;;;;4968318;28;19924;-80
2024/02/22 09:33:13;;;;;;;;;;;9.40;99.90;;;;;;4968356;28;19925;-80
2024/02/22 09:35:41;;;;;;;;;;;9.40;99.90;;;;;;4965379;28;19913;-80
2024/02/22 09:38:11;;;;;;;;;;;9.50;99.90;;;;;;4966319;28;19925;-79
2024/02/22 09:40:46;;;;;;;;;;;9.50;99.90;;;;;;4965182;28;19929;-80
2024/02/22 09:43:14;;;;;;;;;;;9.50;99.90;;;;;;4996753;28;19926;-78
2024/02/22 09:45:40;;;;;;;;;;;9.50;99.90;;;;;;4988849;28;20012;-80
2024/02/22 09:48:09;;;;;;;;;;;9.60;99.90;;;;;;4968910;28;19953;-80
2024/02/22 09:50:37;;;;;;;;;;;9.60;99.90;;;;;;4971088;28;19918;-80
2024/02/22 09:53:03;;;;;;;;;;;9.70;99.90;;;;;;4970530;28;19949;-79
2024/02/22 09:55:31;;;;;;;;;;;9.80;99.90;;;;;;4968975;28;19925;-80
2024/02/22 09:57:58;;;;;;;;;;;9.70;99.90;;;;;;4985398;28;19936;-80
2024/02/22 10:00:24;;;;;;;;;;;9.90;99.90;;;;;;4984125;28;19918;-80
2024/02/22 10:02:53;;;;;;;;;;;9.90;99.90;;;;;;4988762;28;19918;-80
2024/02/22 10:05:20;;;;;;;;;;;9.90;99.90;;;;;;4986363;28;19951;-80
2024/02/22 10:07:45;;;;;;;;;;;10.00;99.90;;;;;;4973545;28;20179;-80
2024/02/22 10:10:12;;;;;;;;;;;10.00;99.90;;;;;;4968343;28;19918;-79
2024/02/22 10:12:43;;;;;;;;;;;9.90;99.90;;;;;;4971304;28;19918;-79
2024/02/22 10:15:20;;;;;;;;;;;10.00;99.90;;;;;;4968880;28;19941;-78
2024/02/22 10:17:48;;;;;;;;;;;10.00;99.90;;;;;;4995105;28;19913;-81
2024/02/22 10:20:42;;;;;;;;;;;;;;;;;;;;;
2024/02/22 10:23:31;;;;;;;;;;;10.10;99.90;;;;;;4973796;28;19917;-80
2024/02/22 10:26:03;;;;;;;;;;;10.10;99.90;;;;;;4966362;28;19917;-80
2024/02/22 10:28:32;;;;;;;;;;;10.10;99.90;;;;;;4982460;28;19925;-80
2024/02/22 10:31:02;;;;;;;;;;;10.20;99.90;;;;;;4982362;28;20090;-80
2024/02/22 10:33:29;;;;;;;;;;;10.20;99.90;;;;;;4971633;28;19918;-80
2024/02/22 10:35:55;;;;;;;;;;;10.20;99.90;;;;;;4962990;28;19924;-80
2024/02/22 10:38:22;;;;;;;;;;;10.30;99.90;;;;;;4969829;28;19980;-80
2024/02/22 10:40:49;;;;;;;;;;;10.30;99.90;;;;;;4962670;28;19918;-80
2024/02/22 10:43:17;;;;;;;;;;;10.30;99.90;;;;;;4977677;28;19926;-80
2024/02/22 10:45:47;;;;;;;;;;;10.30;99.90;;;;;;4965073;28;19922;-79
2024/02/22 10:48:13;;;;;;;;;;;10.30;99.90;;;;;;4944146;28;19925;-80
2024/02/22 10:50:39;;;;;;;;;;;10.20;99.90;;;;;;4972878;28;19914;-79
2024/02/22 10:53:05;;;;;;;;;;;10.30;99.90;;;;;;4967333;28;19993;-80
2024/02/22 10:55:32;;;;;;;;;;;10.30;99.90;;;;;;4953417;28;19987;-80
2024/02/22 10:57:58;;;;;;;;;;;10.30;99.90;;;;;;4969012;28;19918;-80
2024/02/22 11:00:24;;;;;;;;;;;10.30;99.90;;;;;;4953576;28;19960;-80
2024/02/22 11:02:50;;;;;;;;;;;10.40;99.90;;;;;;4969666;28;19961;-80
2024/02/22 11:05:18;;;;;;;;;;;10.50;99.90;;;;;;4967005;28;19945;-80
2024/02/22 11:07:51;;;;;;;;;;;10.50;99.90;;;;;;4942496;28;19922;-80
2024/02/22 11:10:17;;;;;;;;;;;10.60;99.90;;;;;;4952663;28;20353;-80
2024/02/22 11:12:43;;;;;;;;;;;10.70;99.90;;;;;;4985073;28;19917;-80
2024/02/22 11:15:10;;;;;;;;;;;10.70;99.90;;;;;;4985196;28;19925;-80
2024/02/22 11:17:36;;;;;;;;;;;10.80;99.90;;;;;;4960888;28;19972;-80
2024/02/22 11:20:08;;;;;;;;;;;10.80;99.90;;;;;;4985690;28;19917;-80
2024/02/22 11:22:35;;;;;;;;;;;10.80;99.90;;;;;;4970515;28;19917;-79
2024/02/22 11:25:07;;;;;;;;;;;10.90;99.90;;;;;;4985971;28;19968;-79
2024/02/22 11:27:33;;;;;;;;;;;10.90;99.90;;;;;;4967115;28;20311;-80
2024/02/22 11:29:59;;;;;;;;;;;11.00;99.90;;;;;;4969942;28;20105;-80
2024/02/22 11:32:25;;;;;;;;;;;11.10;99.90;;;;;;4952715;28;19944;-80
2024/02/22 11:34:54;;;;;;;;;;;11.20;99.90;;;;;;4949742;28;19918;-81
2024/02/22 11:37:22;;;;;;;;;;;11.30;99.90;;;;;;4943250;28;19925;-80
2024/02/22 11:39:57;;;;;;;;;;;11.30;99.90;;;;;;4976154;28;20037;-80
2024/02/22 11:42:23;;;;;;;;;;;11.40;99.90;;;;;;4969385;28;19925;-80
2024/02/22 11:44:53;;;;;;;;;;;11.50;99.90;;;;;;4945094;28;19921;-81
2024/02/22 11:47:52;;;;;;;;;;;11.60;99.90;;;;;;4940369;28;19922;-80
2024/02/22 11:50:20;;;;;;;;;;;11.90;99.90;;;;;;4976910;28;19925;-79
2024/02/22 11:52:51;;;;;;;;;;;12.20;99.90;;;;;;4986080;28;19914;-80
2024/02/22 11:55:18;;;;;;;;;;;12.30;99.90;;;;;;4965869;28;20355;-80
2024/02/22 11:57:52;;;;;;;;;;;12.20;99.90;;;;;;4964728;28;19949;-79
2024/02/22 12:00:26;;;;;;;;;;;12.00;99.90;;;;;;4982327;28;19918;-80
2024/02/22 12:03:30;;;;;;;;;;;12.00;99.90;;;;;;4965858;28;19918;-80
2024/02/22 12:05:57;;;;;;;;;;;12.10;99.90;;;;;;4971851;28;19914;-80
2024/02/22 12:08:29;;;;;;;;;;;12.20;99.90;;;;;;4968916;28;19918;-80
2024/02/22 12:11:14;;;;;;;;;;;;;;;;;;;;;
2024/02/22 12:14:17;;;;;;;;;;;11.90;99.90;;;;;;4964935;28;19925;-81
2024/02/22 12:20:07;;;;;;;;;;;11.80;99.90;;;;;;4970205;28;20080;-80
2024/02/22 12:29:41;;;;;;;;;;;;;;;;;;;;;
2024/02/22 12:32:17;;;;;;;;;;;12.30;99.90;;;;;;4905092;29;19926;-79
2024/02/22 12:35:19;;;;;;;;;;;12.20;99.90;;;;;;4906082;29;19923;-79
2024/02/22 12:37:57;;;;;;;;;;;12.20;99.90;;;;;;4949959;28;19933;-78
2024/02/22 12:40:45;;;;;;;;;;;12.20;99.90;;;;;;4895357;29;20786;-79
2024/02/22 12:43:21;;;;;;;;;;;12.10;99.90;;;;;;4861546;29;20337;-79
2024/02/22 12:49:04;;;;;;;;;;;12.00;99.90;;;;;;4874948;28;19953;-79
2024/02/22 12:51:43;;;;;;;;;;;12.00;99.90;;;;;;4979014;28;20579;-79
2024/02/22 12:54:09;;;;;;;;;;;11.90;99.90;;;;;;4947199;28;19918;-79
2024/02/22 12:57:12;;;;;;;;;;;;;;;;;;;;;
2024/02/22 12:59:46;;;;;;;;;;;11.90;99.90;;;;;;4983893;28;19935;-81
2024/02/22 13:02:19;;;;;;;;;;;11.90;99.90;;;;;;4946548;28;19925;-81
2024/02/22 13:04:45;;;;;;;;;;;11.80;99.90;;;;;;4933832;28;19923;-81
2024/02/22 13:07:17;;;;;;;;;;;11.80;99.90;;;;;;4968367;28;19920;-79
2024/02/22 13:10:46;;;;;;;;;;;;;;;;;;;;;
2024/02/22 13:13:15;;;;;;;;;;;11.80;99.90;;;;;;4988295;28;19917;-80
2024/02/22 13:15:47;;;;;;;;;;;11.70;99.90;;;;;;4965487;28;19918;-80
2024/02/22 13:18:16;;;;;;;;;;;11.70;99.90;;;;;;4966201;28;19913;-79
2024/02/22 13:20:47;;;;;;;;;;;11.70;99.90;;;;;;4977373;28;19941;-78
2024/02/22 13:23:16;;;;;;;;;;;11.70;99.90;;;;;;4985289;28;19917;-79
2024/02/22 13:25:51;;;;;;;;;;;11.70;99.90;;;;;;4966812;28;19918;-79
2024/02/22 13:28:29;;;;;;;;;;;11.60;99.90;;;;;;4952700;28;20356;-79
2024/02/22 13:30:57;;;;;;;;;;;11.70;99.90;;;;;;4957585;28;20302;-79
2024/02/22 13:33:25;;;;;;;;;;;11.70;99.90;;;;;;4929454;28;19918;-79
2024/02/22 13:36:20;;;;;;;;;;;11.60;99.90;;;;;;4928987;28;20050;-79
2024/02/22 13:38:51;;;;;;;;;;;11.60;99.90;;;;;;4947135;28;20323;-79
2024/02/22 13:41:49;;;;;;;;;;;11.60;99.90;;;;;;4965817;28;20370;-80
2024/02/22 13:47:39;;;;;;;;;;;11.70;99.90;;;;;;4959260;28;19969;-81
2024/02/22 13:50:19;;;;;;;;;;;11.70;99.90;;;;;;4964640;28;19913;-80
2024/02/22 13:52:52;;;;;;;;;;;11.70;99.90;;;;;;4971346;28;19941;-80
2024/02/22 13:55:30;;;;;;;;;;;11.70;99.90;;;;;;4965492;28;19946;-80
2024/02/22 13:58:07;;;;;;;;;;;11.70;99.90;;;;;;4963591;28;20340;-80
2024/02/22 14:00:36;;;;;;;;;;;11.70;99.90;;;;;;4950683;28;19921;-80
2024/02/22 14:03:27;;;;;;;;;;;11.70;99.90;;;;;;4924027;28;20263;-80
2024/02/22 14:06:24;;;;;;;;;;;11.70;99.90;;;;;;4947894;28;19922;-79
2024/02/22 14:09:16;;;;;;;;;;;11.60;99.90;;;;;;4966647;28;19922;-79
2024/02/22 14:12:25;;;;;;;;;;;11.70;99.90;;;;;;4970271;28;20212;-79
2024/02/22 14:14:57;;;;;;;;;;;11.60;99.90;;;;;;4976915;28;19918;-79
2024/02/22 14:17:31;;;;;;;;;;;11.70;99.90;;;;;;4955351;28;19918;-79
2024/02/22 14:20:00;;;;;;;;;;;11.50;99.90;;;;;;4963527;28;20565;-79
2024/02/22 14:22:27;;;;;;;;;;;11.60;99.90;;;;;;4971878;28;19960;-79
2024/02/22 14:24:58;;;;;;;;;;;11.60;99.90;;;;;;4951882;28;20033;-80
2024/02/22 14:27:35;;;;;;;;;;;11.60;99.90;;;;;;4964539;28;19917;-79
2024/02/22 14:30:05;;;;;;;;;;;11.60;99.90;;;;;;4964788;28;19926;-79
2024/02/22 14:32:40;;;;;;;;;;;11.50;99.90;;;;;;4978937;28;20311;-78
2024/02/22 14:35:10;;;;;;;;;;;11.50;99.90;;;;;;4964244;28;20406;-79
2024/02/22 14:37:41;;;;;;;;;;;11.60;99.90;;;;;;4947855;28;19918;-80
2024/02/22 14:40:11;;;;;;;;;;;11.60;99.90;;;;;;4966960;28;19917;-79
2024/02/22 14:42:53;;;;;;;;;;;11.60;99.90;;;;;;5000878;28;19925;-79
2024/02/22 14:45:18;;;;;;;;;;;11.60;99.90;;;;;;4966550;28;20234;-80
2024/02/22 14:47:54;;;;;;;;;;;11.70;99.90;;;;;;4965013;28;20323;-79
2024/02/22 14:50:24;;;;;;;;;;;11.60;99.90;;;;;;4965481;28;19953;-80
2024/02/22 14:53:06;;;;;;;;;;;;;;;;;;;;;
2024/02/22 14:55:32;;;;;;;;;;;11.60;99.90;;;;;;4948704;28;19929;-79
2024/02/22 14:58:08;;;;;;;;;;;;;;;;;;;;;
2024/02/22 15:00:54;;;;;;;;;;;11.60;99.90;;;;;;4951893;28;20418;-79
2024/02/22 15:03:20;;;;;;;;;;;11.60;99.90;;;;;;4954954;28;20254;-79